sensor_id;sensor_type;location;lat;lon;timestamp;pressure;altitude;pressure_sealevel;temperature;humidity
19811;BME280;10065;49.632;8.346;2023-11-19T00:41:07;100441.63;;;10.05;100.00
19811;BME280;10065;49.632;8.346;2023-11-19T00:46:47;100437.56;;;10.11;100.00
19811;BME280;10065;49.632;8.346;2023-11-19T00:57:48;100433.50;;;10.26;100.00
19811;BME280;10065;49.632;8.346;2023-11-19T01:33:57;100410.63;;;10.15;100.00
19811;BME280;10065;49.632;8.346;2023-11-19T03:51:59;100303.91;;;10.76;100.00
19811;BME280;10065;49.632;8.346;2023-11-19T03:59:48;100277.78;;;10.81;100.00
19811;BME280;10065;49.632;8.346;2023-11-19T05:18:40;100272.94;;;11.28;100.00
19811;BME280;10065;49.632;8.346;2023-11-19T08:02:09;100312.63;;;12.56;100.00
19811;BME280;10065;49.632;8.346;2023-11-19T08:04:37;100313.63;;;12.63;100.00
19811;BME280;10065;49.632;8.346;2023-11-19T08:07:11;100314.28;;;12.65;100.00
19811;BME280;10065;49.632;8.346;2023-11-19T08:09:39;100313.78;;;12.70;100.00
19811;BME280;10065;49.632;8.346;2023-11-19T08:12:07;100311.13;;;12.78;100.00
19811;BME280;10065;49.632;8.346;2023-11-19T08:14:49;100304.31;;;12.84;100.00
19811;BME280;10065;49.632;8.346;2023-11-19T08:17:21;100310.44;;;12.84;100.00
19811;BME280;10065;49.632;8.346;2023-11-19T08:19:50;100314.78;;;12.85;100.00
19811;BME280;10065;49.632;8.346;2023-11-19T08:22:19;100318.78;;;12.89;100.00
19811;BME280;10065;49.632;8.346;2023-11-19T08:24:48;100314.59;;;12.95;100.00
19811;BME280;10065;49.632;8.346;2023-11-19T08:27:17;100312.78;;;13.03;100.00
19811;BME280;10065;49.632;8.346;2023-11-19T08:29:45;100300.47;;;13.10;100.00
19811;BME280;10065;49.632;8.346;2023-11-19T08:32:13;100298.16;;;13.15;100.00
19811;BME280;10065;49.632;8.346;2023-11-19T08:34:43;100295.78;;;13.29;100.00
19811;BME280;10065;49.632;8.346;2023-11-19T08:37:11;100301.44;;;13.42;100.00
19811;BME280;10065;49.632;8.346;2023-11-19T08:39:39;100296.41;;;13.47;100.00
19811;BME280;10065;49.632;8.346;2023-11-19T08:42:08;100302.75;;;13.54;100.00
19811;BME280;10065;49.632;8.346;2023-11-19T08:44:37;100329.03;;;13.57;100.00
19811;BME280;10065;49.632;8.346;2023-11-19T08:47:05;100327.72;;;13.53;100.00
19811;BME280;10065;49.632;8.346;2023-11-19T08:49:33;100329.72;;;13.51;100.00
19811;BME280;10065;49.632;8.346;2023-11-19T08:52:06;100327.38;;;13.48;100.00
19811;BME280;10065;49.632;8.346;2023-11-19T08:54:37;100329.06;;;13.41;100.00
19811;BME280;10065;49.632;8.346;2023-11-19T08:57:12;100321.09;;;13.33;100.00
19811;BME280;10065;49.632;8.346;2023-11-19T08:59:41;100319.09;;;13.35;100.00
19811;BME280;10065;49.632;8.346;2023-11-19T09:02:18;100334.09;;;13.36;100.00
19811;BME280;10065;49.632;8.346;2023-11-19T09:05:29;100340.38;;;13.43;100.00
19811;BME280;10065;49.632;8.346;2023-11-19T09:08:15;100335.66;;;13.69;100.00
19811;BME280;10065;49.632;8.346;2023-11-19T09:13:47;100331.75;;;14.58;100.00
19811;BME280;10065;49.632;8.346;2023-11-19T09:16:20;100325.28;;;14.52;99.25
19811;BME280;10065;49.632;8.346;2023-11-19T09:19:05;100322.00;;;14.34;100.00
19811;BME280;10065;49.632;8.346;2023-11-19T09:21:41;100336.72;;;14.30;100.00
19811;BME280;10065;49.632;8.346;2023-11-19T09:24:20;100338.94;;;14.18;100.00
19811;BME280;10065;49.632;8.346;2023-11-19T09:26:51;100342.34;;;14.04;100.00
19811;BME280;10065;49.632;8.346;2023-11-19T09:29:31;100351.22;;;13.97;100.00
19811;BME280;10065;49.632;8.346;2023-11-19T09:31:59;100351.28;;;13.80;100.00
19811;BME280;10065;49.632;8.346;2023-11-19T09:34:34;100357.91;;;13.84;100.00
19811;BME280;10065;49.632;8.346;2023-11-19T09:38:53;100361.44;;;13.77;100.00
19811;BME280;10065;49.632;8.346;2023-11-19T09:41:04;100357.78;;;13.78;100.00
19811;BME280;10065;49.632;8.346;2023-11-19T09:43:50;100347.13;;;13.78;100.00
19811;BME280;10065;49.632;8.346;2023-11-19T09:46:30;100346.25;;;13.85;100.00
19811;BME280;10065;49.632;8.346;2023-11-19T09:49:06;100347.22;;;13.92;100.00
19811;BME280;10065;49.632;8.346;2023-11-19T09:51:41;100355.88;;;13.94;99.15
19811;BME280;10065;49.632;8.346;2023-11-19T09:54:13;100357.38;;;13.97;98.66
19811;BME280;10065;49.632;8.346;2023-11-19T09:56:45;100355.88;;;13.94;98.75
19811;BME280;10065;49.632;8.346;2023-11-19T10:00:13;100354.88;;;13.96;99.19
19811;BME280;10065;49.632;8.346;2023-11-19T10:02:51;100351.06;;;13.98;99.36
19811;BME280;10065;49.632;8.346;2023-11-19T10:05:30;100340.84;;;14.02;99.92
19811;BME280;10065;49.632;8.346;2023-11-19T10:08:02;100336.50;;;14.09;99.15
19811;BME280;10065;49.632;8.346;2023-11-19T10:10:31;100340.16;;;14.16;99.17
19811;BME280;10065;49.632;8.346;2023-11-19T10:13:01;100337.44;;;14.24;98.80
19811;BME280;10065;49.632;8.346;2023-11-19T10:15:39;100351.06;;;14.29;99.05
19811;BME280;10065;49.632;8.346;2023-11-19T10:18:08;100339.31;;;14.46;98.45
19811;BME280;10065;49.632;8.346;2023-11-19T10:36:21;100296.88;;;17.42;81.75
19811;BME280;10065;49.632;8.346;2023-11-19T10:47:22;100284.31;;;17.77;72.83
19811;BME280;10065;49.632;8.346;2023-11-19T11:02:34;100296.81;;;19.25;65.89
19811;BME280;10065;49.632;8.346;2023-11-19T12:26:13;100273.38;;;17.44;59.79
19811;BME280;10065;49.632;8.346;2023-11-19T12:29:43;100279.44;;;17.25;60.77
19811;BME280;10065;49.632;8.346;2023-11-19T12:39:52;100268.56;;;16.56;64.45
19811;BME280;10065;49.632;8.346;2023-11-19T12:42:37;100244.97;;;16.45;65.10
19811;BME280;10065;49.632;8.346;2023-11-19T12:45:15;100237.78;;;16.24;63.94
19811;BME280;10065;49.632;8.346;2023-11-19T12:47:43;100243.50;;;16.21;63.01
19811;BME280;10065;49.632;8.346;2023-11-19T12:50:15;100238.28;;;16.13;62.93
19811;BME280;10065;49.632;8.346;2023-11-19T12:52:55;100241.72;;;16.07;63.31
19811;BME280;10065;49.632;8.346;2023-11-19T12:55:26;100232.16;;;15.98;63.50
19811;BME280;10065;49.632;8.346;2023-11-19T12:58:04;100226.81;;;15.98;64.22
19811;BME280;10065;49.632;8.346;2023-11-19T13:00:32;100228.38;;;15.92;64.72
19811;BME280;10065;49.632;8.346;2023-11-19T13:03:06;100223.00;;;15.92;64.97
19811;BME280;10065;49.632;8.346;2023-11-19T13:05:35;100218.44;;;15.86;64.74
19811;BME280;10065;49.632;8.346;2023-11-19T13:08:09;100228.28;;;15.86;65.63
19811;BME280;10065;49.632;8.346;2023-11-19T13:10:52;100224.19;;;15.83;65.40
19811;BME280;10065;49.632;8.346;2023-11-19T13:13:23;100217.91;;;15.76;62.68
19811;BME280;10065;49.632;8.346;2023-11-19T13:16:06;100221.78;;;15.73;62.40
19811;BME280;10065;49.632;8.346;2023-11-19T13:18:50;100220.69;;;15.68;59.67
19811;BME280;10065;49.632;8.346;2023-11-19T13:21:21;100222.34;;;15.69;59.71
19811;BME280;10065;49.632;8.346;2023-11-19T13:23:49;100216.63;;;15.72;60.35
19811;BME280;10065;49.632;8.346;2023-11-19T13:26:21;100221.97;;;15.72;60.33
19811;BME280;10065;49.632;8.346;2023-11-19T13:28:50;100224.00;;;15.70;60.21
19811;BME280;10065;49.632;8.346;2023-11-19T13:31:18;100207.97;;;15.70;60.96
19811;BME280;10065;49.632;8.346;2023-11-19T13:34:02;100205.09;;;15.71;60.92
19811;BME280;10065;49.632;8.346;2023-11-19T13:36:31;100218.41;;;15.65;61.32
19811;BME280;10065;49.632;8.346;2023-11-19T13:39:08;100221.44;;;15.62;61.11
19811;BME280;10065;49.632;8.346;2023-11-19T13:41:39;100211.75;;;15.61;61.82
19811;BME280;10065;49.632;8.346;2023-11-19T13:44:14;100218.94;;;15.60;62.33
19811;BME280;10065;49.632;8.346;2023-11-19T13:46:44;100217.69;;;15.56;62.88
19811;BME280;10065;49.632;8.346;2023-11-19T13:49:18;100208.25;;;15.60;63.45
19811;BME280;10065;49.632;8.346;2023-11-19T13:52:08;100205.59;;;15.60;63.60
19811;BME280;10065;49.632;8.346;2023-11-19T13:54:42;100213.78;;;15.59;63.86
19811;BME280;10065;49.632;8.346;2023-11-19T13:57:22;100205.75;;;15.59;63.10
19811;BME280;10065;49.632;8.346;2023-11-19T13:59:52;100208.44;;;15.59;63.29
19811;BME280;10065;49.632;8.346;2023-11-19T14:02:21;100200.16;;;15.54;64.14
19811;BME280;10065;49.632;8.346;2023-11-19T14:04:49;100217.84;;;15.55;64.04
19811;BME280;10065;49.632;8.346;2023-11-19T14:07:20;100215.19;;;15.55;64.93
19811;BME280;10065;49.632;8.346;2023-11-19T14:09:51;100213.53;;;15.54;65.37
19811;BME280;10065;49.632;8.346;2023-11-19T14:12:19;100223.72;;;15.50;64.04
19811;BME280;10065;49.632;8.346;2023-11-19T14:15:04;100228.22;;;15.50;65.17
19811;BME280;10065;49.632;8.346;2023-11-19T14:17:33;100221.63;;;15.46;64.97
19811;BME280;10065;49.632;8.346;2023-11-19T14:20:05;100236.72;;;15.38;63.36
19811;BME280;10065;49.632;8.346;2023-11-19T14:23:03;100230.09;;;15.34;62.98
19811;BME280;10065;49.632;8.346;2023-11-19T14:25:59;100232.03;;;15.26;60.94
19811;BME280;10065;49.632;8.346;2023-11-19T14:28:28;100233.50;;;15.28;61.72
19811;BME280;10065;49.632;8.346;2023-11-19T14:30:59;100230.84;;;15.28;62.01
19811;BME280;10065;49.632;8.346;2023-11-19T14:33:27;100227.34;;;15.28;62.23
19811;BME280;10065;49.632;8.346;2023-11-19T14:35:55;100225.66;;;15.27;63.02
19811;BME280;10065;49.632;8.346;2023-11-19T14:38:23;100222.53;;;15.23;62.89
19811;BME280;10065;49.632;8.346;2023-11-19T14:40:51;100227.88;;;15.23;63.27
19811;BME280;10065;49.632;8.346;2023-11-19T14:43:21;100237.53;;;15.24;64.18
19811;BME280;10065;49.632;8.346;2023-11-19T14:45:50;100232.66;;;15.13;64.36
19811;BME280;10065;49.632;8.346;2023-11-19T14:48:22;100234.69;;;15.11;64.26
19811;BME280;10065;49.632;8.346;2023-11-19T14:50:51;100222.88;;;15.05;64.29
19811;BME280;10065;49.632;8.346;2023-11-19T14:53:19;100222.63;;;15.00;62.83
19811;BME280;10065;49.632;8.346;2023-11-19T14:55:47;100221.69;;;14.93;61.35
19811;BME280;10065;49.632;8.346;2023-11-19T14:58:15;100217.19;;;14.94;60.93
19811;BME280;10065;49.632;8.346;2023-11-19T15:00:43;100233.56;;;14.91;61.49
19811;BME280;10065;49.632;8.346;2023-11-19T15:03:16;100224.06;;;14.88;61.23
19811;BME280;10065;49.632;8.346;2023-11-19T15:05:48;100220.28;;;14.83;60.80
19811;BME280;10065;49.632;8.346;2023-11-19T15:08:24;100221.13;;;14.83;60.64
19811;BME280;10065;49.632;8.346;2023-11-19T15:10:53;100219.56;;;14.89;60.89
19811;BME280;10065;49.632;8.346;2023-11-19T15:13:21;100230.22;;;14.89;61.98
19811;BME280;10065;49.632;8.346;2023-11-19T15:15:49;100219.28;;;14.84;60.66
19811;BME280;10065;49.632;8.346;2023-11-19T15:18:19;100220.28;;;14.83;60.80
19811;BME280;10065;49.632;8.346;2023-11-19T15:20:49;100226.09;;;14.86;60.90
19811;BME280;10065;49.632;8.346;2023-11-19T15:23:17;100229.88;;;14.92;60.78
19811;BME280;10065;49.632;8.346;2023-11-19T15:25:46;100241.75;;;14.89;61.12
19811;BME280;10065;49.632;8.346;2023-11-19T15:28:15;100230.63;;;14.86;61.46
19811;BME280;10065;49.632;8.346;2023-11-19T15:30:44;100238.78;;;14.84;61.47
19811;BME280;10065;49.632;8.346;2023-11-19T15:33:12;100249.91;;;14.88;62.53
19811;BME280;10065;49.632;8.346;2023-11-19T15:35:40;100240.06;;;14.88;64.17
19811;BME280;10065;49.632;8.346;2023-11-19T15:38:10;100248.75;;;14.90;65.48
19811;BME280;10065;49.632;8.346;2023-11-19T15:40:38;100250.59;;;14.90;65.67
19811;BME280;10065;49.632;8.346;2023-11-19T15:43:09;100241.28;;;14.86;65.45
19811;BME280;10065;49.632;8.346;2023-11-19T15:45:37;100240.81;;;14.82;66.48
19811;BME280;10065;49.632;8.346;2023-11-19T15:48:06;100240.34;;;14.79;66.63
19811;BME280;10065;49.632;8.346;2023-11-19T15:50:34;100239.78;;;14.68;65.82
19811;BME280;10065;49.632;8.346;2023-11-19T15:53:02;100252.81;;;14.63;65.09
19811;BME280;10065;49.632;8.346;2023-11-19T15:55:32;100253.16;;;14.60;65.79
19811;BME280;10065;49.632;8.346;2023-11-19T15:58:00;100262.00;;;14.61;66.87
19811;BME280;10065;49.632;8.346;2023-11-19T16:00:29;100247.19;;;14.58;66.90
19811;BME280;10065;49.632;8.346;2023-11-19T16:02:58;100251.53;;;14.59;66.33
19811;BME280;10065;49.632;8.346;2023-11-19T16:05:26;100250.88;;;14.57;64.89
19811;BME280;10065;49.632;8.346;2023-11-19T16:07:55;100251.31;;;14.61;65.75
19811;BME280;10065;49.632;8.346;2023-11-19T16:10:22;100255.66;;;14.62;65.32
19811;BME280;10065;49.632;8.346;2023-11-19T16:12:53;100255.31;;;14.65;65.61
19811;BME280;10065;49.632;8.346;2023-11-19T16:15:21;100257.81;;;14.66;65.65
19811;BME280;10065;49.632;8.346;2023-11-19T16:17:52;100256.16;;;14.65;64.70
19811;BME280;10065;49.632;8.346;2023-11-19T16:20:21;100255.13;;;14.66;64.70
19811;BME280;10065;49.632;8.346;2023-11-19T16:22:50;100250.81;;;14.65;64.04
19811;BME280;10065;49.632;8.346;2023-11-19T16:25:18;100264.81;;;14.67;63.86
19811;BME280;10065;49.632;8.346;2023-11-19T16:27:50;100267.66;;;14.66;64.21
19811;BME280;10065;49.632;8.346;2023-11-19T16:30:20;100261.75;;;14.71;63.75
19811;BME280;10065;49.632;8.346;2023-11-19T16:32:51;100268.75;;;14.72;63.92
19811;BME280;10065;49.632;8.346;2023-11-19T16:35:21;100269.13;;;14.68;64.09
19811;BME280;10065;49.632;8.346;2023-11-19T16:37:49;100272.59;;;14.69;63.77
19811;BME280;10065;49.632;8.346;2023-11-19T16:40:17;100263.13;;;14.66;64.11
19811;BME280;10065;49.632;8.346;2023-11-19T16:42:48;100268.81;;;14.63;64.74
19811;BME280;10065;49.632;8.346;2023-11-19T16:45:18;100267.88;;;14.56;63.83
19811;BME280;10065;49.632;8.346;2023-11-19T16:47:47;100268.72;;;14.57;63.54
19811;BME280;10065;49.632;8.346;2023-11-19T16:50:19;100267.88;;;14.56;63.72
19811;BME280;10065;49.632;8.346;2023-11-19T16:52:52;100260.28;;;14.45;64.39
19811;BME280;10065;49.632;8.346;2023-11-19T16:55:22;100263.78;;;14.46;65.34
19811;BME280;10065;49.632;8.346;2023-11-19T16:58:13;100253.28;;;14.44;66.84
19811;BME280;10065;49.632;8.346;2023-11-19T17:00:45;100258.28;;;14.47;66.70
19811;BME280;10065;49.632;8.346;2023-11-19T17:03:16;100256.78;;;14.45;67.22
19811;BME280;10065;49.632;8.346;2023-11-19T17:05:54;100263.97;;;14.44;67.40
19811;BME280;10065;49.632;8.346;2023-11-19T17:08:22;100271.34;;;14.42;67.21
19811;BME280;10065;49.632;8.346;2023-11-19T17:10:53;100268.19;;;14.39;66.79
19811;BME280;10065;49.632;8.346;2023-11-19T17:13:22;100263.34;;;14.34;66.86
19811;BME280;10065;49.632;8.346;2023-11-19T17:15:51;100269.03;;;14.31;66.60
19811;BME280;10065;49.632;8.346;2023-11-19T17:18:21;100273.06;;;14.27;66.70
19811;BME280;10065;49.632;8.346;2023-11-19T17:20:50;100270.75;;;14.24;66.19
19811;BME280;10065;49.632;8.346;2023-11-19T17:23:20;100280.41;;;14.25;66.41
19811;BME280;10065;49.632;8.346;2023-11-19T17:25:48;100287.44;;;14.18;66.11
19811;BME280;10065;49.632;8.346;2023-11-19T17:28:17;100287.44;;;14.18;65.92
19811;BME280;10065;49.632;8.346;2023-11-19T17:30:46;100297.28;;;14.17;66.57
19811;BME280;10065;49.632;8.346;2023-11-19T17:33:15;100294.50;;;14.11;65.04
19811;BME280;10065;49.632;8.346;2023-11-19T17:35:45;100295.66;;;14.08;65.04
19811;BME280;10065;49.632;8.346;2023-11-19T17:38:14;100292.81;;;14.10;65.51
19811;BME280;10065;49.632;8.346;2023-11-19T17:40:45;100287.88;;;14.07;65.77
19811;BME280;10065;49.632;8.346;2023-11-19T17:43:14;100292.53;;;14.05;65.68
19811;BME280;10065;49.632;8.346;2023-11-19T17:45:42;100299.22;;;14.01;65.33
19811;BME280;10065;49.632;8.346;2023-11-19T17:48:11;100299.56;;;13.98;65.59
19811;BME280;10065;49.632;8.346;2023-11-19T17:50:39;100299.91;;;13.94;64.83
19811;BME280;10065;49.632;8.346;2023-11-19T17:53:09;100299.06;;;13.94;65.21
19811;BME280;10065;49.632;8.346;2023-11-19T17:55:38;100299.06;;;13.94;65.33
19811;BME280;10065;49.632;8.346;2023-11-19T17:58:06;100303.75;;;13.92;65.51
19811;BME280;10065;49.632;8.346;2023-11-19T18:00:38;100303.28;;;13.88;65.02
19811;BME280;10065;49.632;8.346;2023-11-19T18:03:08;100304.56;;;13.92;65.18
19811;BME280;10065;49.632;8.346;2023-11-19T18:05:36;100313.41;;;13.93;65.49
19811;BME280;10065;49.632;8.346;2023-11-19T18:08:10;100310.91;;;13.91;64.87
19811;BME280;10065;49.632;8.346;2023-11-19T18:11:01;100315.13;;;13.86;65.28
19811;BME280;10065;49.632;8.346;2023-11-19T18:13:30;100326.47;;;13.80;65.27
19811;BME280;10065;49.632;8.346;2023-11-19T18:16:01;100333.63;;;13.79;65.94
19811;BME280;10065;49.632;8.346;2023-11-19T18:18:30;100332.09;;;13.85;66.59
19811;BME280;10065;49.632;8.346;2023-11-19T18:21:00;100332.28;;;13.83;67.43
19811;BME280;10065;49.632;8.346;2023-11-19T18:23:30;100329.47;;;13.77;67.65
19811;BME280;10065;49.632;8.346;2023-11-19T18:25:59;100336.63;;;13.76;68.17
19811;BME280;10065;49.632;8.346;2023-11-19T18:28:28;100336.31;;;13.71;67.96
19811;BME280;10065;49.632;8.346;2023-11-19T18:30:56;100331.03;;;13.63;68.42
19811;BME280;10065;49.632;8.346;2023-11-19T18:33:25;100348.00;;;13.62;68.83
19811;BME280;10065;49.632;8.346;2023-11-19T18:35:54;100347.19;;;13.62;69.30
19811;BME280;10065;49.632;8.346;2023-11-19T18:38:22;100345.00;;;13.57;69.26
19811;BME280;10065;49.632;8.346;2023-11-19T18:41:10;100336.72;;;13.52;69.87
19811;BME280;10065;49.632;8.346;2023-11-19T18:43:40;100336.19;;;13.48;70.28
19811;BME280;10065;49.632;8.346;2023-11-19T18:46:08;100336.56;;;13.45;69.93
19811;BME280;10065;49.632;8.346;2023-11-19T18:48:37;100332.72;;;13.40;68.98
19811;BME280;10065;49.632;8.346;2023-11-19T18:51:05;100328.22;;;13.40;68.35
19811;BME280;10065;49.632;8.346;2023-11-19T18:53:34;100341.06;;;13.37;68.99
19811;BME280;10065;49.632;8.346;2023-11-19T18:56:03;100335.56;;;13.38;68.82
19811;BME280;10065;49.632;8.346;2023-11-19T18:58:35;100328.41;;;13.39;69.15
19811;BME280;10065;49.632;8.346;2023-11-19T19:01:03;100336.38;;;13.39;69.32
19811;BME280;10065;49.632;8.346;2023-11-19T19:03:33;100325.44;;;13.34;69.51
19811;BME280;10065;49.632;8.346;2023-11-19T19:06:03;100344.91;;;13.34;69.80
19811;BME280;10065;49.632;8.346;2023-11-19T19:08:32;100342.06;;;13.36;69.87
19811;BME280;10065;49.632;8.346;2023-11-19T19:11:28;100340.72;;;13.40;68.84
19811;BME280;10065;49.632;8.346;2023-11-19T19:13:57;100342.69;;;13.62;69.13
19811;BME280;10065;49.632;8.346;2023-11-19T19:16:28;100334.50;;;13.64;68.52
19811;BME280;10065;49.632;8.346;2023-11-19T19:18:57;100328.03;;;13.58;67.92
19811;BME280;10065;49.632;8.346;2023-11-19T19:21:29;100331.72;;;13.49;68.29
19811;BME280;10065;49.632;8.346;2023-11-19T19:23:57;100331.72;;;13.49;68.45
19811;BME280;10065;49.632;8.346;2023-11-19T19:26:30;100338.69;;;13.50;67.96
19811;BME280;10065;49.632;8.346;2023-11-19T19:29:01;100334.34;;;13.57;67.96
19811;BME280;10065;49.632;8.346;2023-11-19T19:31:29;100337.34;;;13.62;67.48
19811;BME280;10065;49.632;8.346;2023-11-19T19:33:58;100335.31;;;13.64;67.29
19811;BME280;10065;49.632;8.346;2023-11-19T19:36:27;100342.00;;;13.68;67.30
19811;BME280;10065;49.632;8.346;2023-11-19T19:38:58;100335.66;;;13.69;66.85
19811;BME280;10065;49.632;8.346;2023-11-19T19:41:28;100325.66;;;13.71;66.99
19811;BME280;10065;49.632;8.346;2023-11-19T19:43:56;100332.63;;;13.72;66.86
19811;BME280;10065;49.632;8.346;2023-11-19T19:46:26;100331.34;;;13.68;67.21
19811;BME280;10065;49.632;8.346;2023-11-19T19:48:55;100338.31;;;13.69;67.25
19811;BME280;10065;49.632;8.346;2023-11-19T19:51:23;100333.00;;;13.69;66.52
19811;BME280;10065;49.632;8.346;2023-11-19T19:53:52;100336.66;;;13.68;67.04
19811;BME280;10065;49.632;8.346;2023-11-19T19:56:20;100347.16;;;13.70;67.07
19811;BME280;10065;49.632;8.346;2023-11-19T19:58:48;100340.00;;;13.70;67.01
19811;BME280;10065;49.632;8.346;2023-11-19T20:01:17;100339.81;;;13.72;66.98
19811;BME280;10065;49.632;8.346;2023-11-19T20:03:46;100348.16;;;13.69;66.41
19811;BME280;10065;49.632;8.346;2023-11-19T20:06:15;100342.00;;;13.68;66.52
19811;BME280;10065;49.632;8.346;2023-11-19T20:08:51;100344.66;;;13.68;65.86
19811;BME280;10065;49.632;8.346;2023-11-19T20:11:19;100353.78;;;13.74;65.84
19811;BME280;10065;49.632;8.346;2023-11-19T20:13:48;100351.63;;;13.77;64.81
19811;BME280;10065;49.632;8.346;2023-11-19T20:16:21;100351.47;;;13.71;65.44
19811;BME280;10065;49.632;8.346;2023-11-19T20:18:51;100359.47;;;13.71;65.93
19811;BME280;10065;49.632;8.346;2023-11-19T20:21:23;100359.63;;;13.77;65.87
19811;BME280;10065;49.632;8.346;2023-11-19T20:23:52;100362.94;;;13.79;65.33
19811;BME280;10065;49.632;8.346;2023-11-19T20:26:20;100360.28;;;13.79;64.37
19811;BME280;10065;49.632;8.346;2023-11-19T20:28:49;100372.41;;;13.82;64.81
19811;BME280;10065;49.632;8.346;2023-11-19T20:31:39;100364.75;;;13.87;64.52
19811;BME280;10065;49.632;8.346;2023-11-19T20:34:09;100373.22;;;13.90;64.87
19811;BME280;10065;49.632;8.346;2023-11-19T20:36:38;100374.22;;;13.98;64.80
19811;BME280;10065;49.632;8.346;2023-11-19T20:39:06;100375.22;;;13.97;64.49
19811;BME280;10065;49.632;8.346;2023-11-19T20:41:35;100379.72;;;13.96;64.53
19811;BME280;10065;49.632;8.346;2023-11-19T20:44:04;100376.22;;;13.96;65.15
19811;BME280;10065;49.632;8.346;2023-11-19T20:46:32;100370.53;;;13.99;65.04
19811;BME280;10065;49.632;8.346;2023-11-19T20:49:01;100363.19;;;14.01;65.38
19811;BME280;10065;49.632;8.346;2023-11-19T20:51:31;100360.22;;;13.96;64.96
19811;BME280;10065;49.632;8.346;2023-11-19T20:54:06;100357.22;;;13.90;65.19
19811;BME280;10065;49.632;8.346;2023-11-19T20:56:35;100351.91;;;13.90;64.89
19811;BME280;10065;49.632;8.346;2023-11-19T20:59:03;100343.59;;;13.85;65.16
19811;BME280;10065;49.632;8.346;2023-11-19T21:01:41;100355.41;;;13.83;65.65
19811;BME280;10065;49.632;8.346;2023-11-19T21:04:12;100357.63;;;13.79;65.17
19811;BME280;10065;49.632;8.346;2023-11-19T21:06:43;100354.94;;;13.79;65.24
19811;BME280;10065;49.632;8.346;2023-11-19T21:09:14;100360.91;;;13.81;65.53
19811;BME280;10065;49.632;8.346;2023-11-19T21:11:43;100359.41;;;13.87;65.36
19811;BME280;10065;49.632;8.346;2023-11-19T21:14:12;100367.25;;;13.88;64.62
19811;BME280;10065;49.632;8.346;2023-11-19T21:16:41;100372.22;;;13.91;64.95
19811;BME280;10065;49.632;8.346;2023-11-19T21:19:11;100369.56;;;13.91;64.96
19811;BME280;10065;49.632;8.346;2023-11-19T21:21:39;100368.22;;;13.96;64.94
19811;BME280;10065;49.632;8.346;2023-11-19T21:24:14;100353.22;;;13.94;64.75
19811;BME280;10065;49.632;8.346;2023-11-19T21:26:54;100353.53;;;14.00;65.26
19811;BME280;10065;49.632;8.346;2023-11-19T21:29:39;100360.53;;;14.01;64.74
19811;BME280;10065;49.632;8.346;2023-11-19T21:32:11;100365.19;;;13.99;64.60
